createdAt,value
2017-10-06T00:00:53.255Z,9.40
2017-10-06T00:03:20.853Z,9.30
2017-10-06T00:05:48.337Z,9.30
2017-10-06T00:08:15.847Z,9.40
2017-10-06T00:10:44.393Z,9.50
2017-10-06T00:13:11.888Z,9.50
2017-10-06T00:15:40.147Z,9.40
2017-10-06T00:18:07.779Z,9.40
2017-10-06T00:20:35.282Z,9.30
2017-10-06T00:23:02.855Z,9.30
2017-10-06T00:25:30.487Z,9.30
2017-10-06T00:27:57.946Z,9.20
2017-10-06T00:30:26.550Z,9.20
2017-10-06T00:32:54.645Z,9.20
2017-10-06T00:35:22.116Z,9.20
2017-10-06T00:37:49.581Z,9.10
2017-10-06T00:40:17.323Z,9.20
2017-10-06T00:42:44.830Z,9.20
2017-10-06T00:45:12.645Z,9.10
2017-10-06T00:47:40.194Z,9.10
2017-10-06T00:50:07.643Z,9.10
2017-10-06T00:52:35.148Z,9.10
2017-10-06T00:55:02.860Z,9.00
2017-10-06T00:57:30.320Z,9.00
2017-10-06T00:59:58.563Z,8.90
2017-10-06T01:02:26.116Z,8.80
2017-10-06T01:04:53.570Z,8.90
2017-10-06T01:07:21.096Z,8.80
2017-10-06T01:09:48.819Z,8.80
2017-10-06T01:12:17.105Z,8.70
2017-10-06T01:14:44.582Z,8.70
2017-10-06T01:17:12.115Z,8.80
2017-10-06T01:19:40.394Z,8.70
2017-10-06T01:22:08.715Z,8.70
2017-10-06T01:24:36.624Z,8.70
2017-10-06T01:27:05.467Z,8.70
2017-10-06T01:29:33.039Z,8.70
2017-10-06T01:32:01.745Z,8.70
2017-10-06T01:34:29.226Z,8.70
2017-10-06T01:36:57.442Z,8.60
2017-10-06T01:39:24.997Z,8.60
2017-10-06T01:41:52.459Z,8.60
2017-10-06T01:44:19.977Z,8.70
2017-10-06T01:46:47.522Z,8.60
2017-10-06T01:49:15.807Z,8.60
2017-10-06T01:51:44.089Z,8.50
2017-10-06T01:54:12.597Z,8.50
2017-10-06T01:56:40.095Z,8.50
2017-10-06T01:59:07.640Z,8.50
2017-10-06T02:01:35.171Z,8.50
2017-10-06T02:04:02.654Z,8.50
2017-10-06T02:06:30.113Z,8.40
2017-10-06T02:08:57.785Z,8.40
2017-10-06T02:11:25.259Z,8.40
2017-10-06T02:13:52.742Z,8.60
2017-10-06T02:16:20.415Z,8.70
2017-10-06T02:18:47.861Z,8.70
2017-10-06T02:21:15.345Z,8.70
2017-10-06T02:23:42.826Z,8.70
2017-10-06T02:26:10.374Z,8.70
2017-10-06T02:28:37.848Z,8.70
2017-10-06T02:31:05.553Z,8.70
2017-10-06T02:33:33.046Z,8.80
2017-10-06T02:36:00.523Z,8.80
2017-10-06T02:38:28.205Z,8.90
2017-10-06T02:40:55.712Z,8.90
2017-10-06T02:43:23.237Z,8.90
2017-10-06T02:45:51.845Z,9.00
2017-10-06T02:48:19.346Z,9.00
2017-10-06T02:50:47.647Z,9.00
2017-10-06T02:53:16.117Z,8.90
2017-10-06T02:55:43.602Z,8.90
2017-10-06T02:58:11.137Z,9.00
2017-10-06T03:00:39.668Z,9.10
2017-10-06T03:03:08.054Z,9.10
2017-10-06T03:05:35.577Z,9.10
2017-10-06T03:08:03.481Z,9.10
2017-10-06T03:10:30.961Z,9.10
2017-10-06T03:12:58.501Z,9.10
2017-10-06T03:15:26.054Z,9.10
2017-10-06T03:17:53.558Z,9.00
2017-10-06T03:20:21.015Z,9.00
2017-10-06T03:22:49.491Z,9.10
2017-10-06T03:25:17.052Z,9.10
2017-10-06T03:27:44.506Z,9.10
2017-10-06T03:30:11.982Z,9.10
2017-10-06T03:32:40.761Z,9.10
2017-10-06T03:35:09.087Z,9.00
2017-10-06T03:37:37.853Z,9.00
2017-10-06T03:40:05.313Z,9.00
2017-10-06T03:42:32.794Z,8.90
2017-10-06T03:45:00.287Z,8.90
2017-10-06T03:47:27.935Z,9.00
2017-10-06T03:49:56.241Z,9.10
2017-10-06T03:52:24.504Z,9.10
2017-10-06T03:54:51.982Z,9.10
2017-10-06T03:57:20.266Z,9.20
2017-10-06T03:59:48.928Z,9.20
2017-10-06T04:02:16.407Z,9.10
2017-10-06T04:04:44.807Z,9.20
2017-10-06T04:07:12.538Z,9.20
2017-10-06T04:09:40.774Z,9.20
2017-10-06T04:12:08.259Z,9.20
2017-10-06T04:14:35.957Z,9.30
2017-10-06T04:17:04.177Z,9.30
2017-10-06T04:19:31.650Z,9.30
2017-10-06T04:22:00.274Z,9.30
2017-10-06T04:24:27.779Z,9.30
2017-10-06T04:26:55.259Z,9.40
2017-10-06T04:29:23.851Z,9.40
2017-10-06T04:31:52.085Z,9.40
2017-10-06T04:34:19.986Z,9.40
2017-10-06T04:36:48.589Z,9.50
2017-10-06T04:39:16.083Z,9.40
2017-10-06T04:41:43.590Z,9.50
2017-10-06T04:44:12.329Z,9.50
2017-10-06T04:46:39.844Z,9.50
2017-10-06T04:49:08.103Z,9.60
2017-10-06T04:51:35.836Z,9.50
2017-10-06T04:54:03.372Z,9.60
2017-10-06T04:56:30.845Z,9.60
2017-10-06T04:58:58.700Z,9.60
2017-10-06T05:01:26.249Z,9.60
2017-10-06T05:03:53.746Z,9.60
2017-10-06T05:06:22.911Z,9.60
2017-10-06T05:08:50.867Z,9.60
2017-10-06T05:11:18.383Z,9.60
2017-10-06T05:13:47.048Z,9.60
2017-10-06T05:16:14.516Z,9.60
2017-10-06T05:18:42.014Z,9.60
2017-10-06T05:21:10.093Z,9.60
2017-10-06T05:23:37.867Z,9.60
2017-10-06T05:26:05.318Z,9.60
2017-10-06T05:28:32.822Z,9.60
2017-10-06T05:31:00.307Z,9.60
2017-10-06T05:33:28.517Z,9.60
2017-10-06T05:35:56.223Z,9.60
2017-10-06T05:38:23.724Z,9.60
2017-10-06T05:40:51.254Z,9.60
2017-10-06T05:43:19.562Z,9.70
2017-10-06T05:45:47.036Z,9.60
2017-10-06T05:48:14.501Z,9.60
2017-10-06T05:50:42.250Z,9.60
2017-10-06T05:53:09.742Z,9.60
2017-10-06T05:55:37.218Z,9.60
2017-10-06T05:58:05.001Z,9.60
2017-10-06T06:00:33.266Z,9.60
2017-10-06T06:03:01.675Z,9.70
2017-10-06T06:05:29.365Z,9.70
2017-10-06T06:07:56.853Z,9.70
2017-10-06T06:10:31.689Z,9.90
2017-10-06T06:12:59.925Z,9.90
2017-10-06T06:15:27.488Z,9.80
2017-10-06T06:17:55.087Z,9.90
2017-10-06T06:20:23.357Z,9.80
2017-10-06T06:22:51.644Z,9.80
2017-10-06T06:25:19.899Z,9.80
2017-10-06T06:27:47.615Z,9.80
2017-10-06T06:30:15.215Z,9.70
2017-10-06T06:32:43.487Z,9.60
2017-10-06T06:35:11.119Z,9.60
2017-10-06T06:37:38.589Z,9.60
2017-10-06T06:40:06.080Z,9.60
2017-10-06T06:42:34.429Z,9.60
2017-10-06T06:45:01.913Z,9.60
2017-10-06T06:47:29.866Z,9.70
2017-10-06T06:49:57.378Z,9.80
2017-10-06T06:52:24.850Z,9.80
2017-10-06T06:54:52.325Z,9.80
2017-10-06T06:57:19.958Z,9.90
2017-10-06T06:59:47.561Z,9.90
2017-10-06T07:02:15.020Z,10.10
2017-10-06T07:04:42.698Z,10.20
2017-10-06T07:07:10.154Z,10.30
2017-10-06T07:09:39.161Z,10.40
2017-10-06T07:12:07.647Z,10.50
2017-10-06T07:14:35.903Z,10.50
2017-10-06T07:17:03.444Z,10.50
2017-10-06T07:19:31.239Z,10.60
2017-10-06T07:21:59.493Z,10.40
2017-10-06T07:24:26.961Z,10.40
2017-10-06T07:26:55.428Z,10.50
2017-10-06T07:29:22.900Z,10.40
2017-10-06T07:31:51.161Z,10.70
2017-10-06T07:34:18.649Z,10.80
2017-10-06T07:36:46.876Z,10.80
2017-10-06T07:39:14.338Z,10.80
2017-10-06T07:41:41.904Z,10.80
2017-10-06T07:44:09.460Z,10.70
2017-10-06T07:46:36.929Z,10.70
2017-10-06T07:49:04.597Z,10.70
2017-10-06T07:51:32.865Z,10.70
2017-10-06T07:54:00.344Z,10.70
2017-10-06T07:56:28.618Z,10.70
2017-10-06T07:58:56.865Z,10.70
2017-10-06T08:01:24.419Z,10.70
2017-10-06T08:03:52.106Z,10.70
2017-10-06T08:06:19.580Z,10.80
2017-10-06T08:08:47.814Z,11.20
2017-10-06T08:11:15.341Z,11.10
2017-10-06T08:13:42.831Z,11.20
2017-10-06T08:16:10.305Z,11.10
2017-10-06T08:18:38.230Z,10.90
2017-10-06T08:21:06.025Z,10.80
2017-10-06T08:23:34.288Z,10.80
2017-10-06T08:26:01.999Z,10.80
2017-10-06T08:28:29.557Z,10.90
2017-10-06T08:30:57.166Z,11.10
2017-10-06T08:33:24.690Z,11.20
2017-10-06T08:35:52.946Z,11.90
2017-10-06T08:38:20.440Z,11.90
2017-10-06T08:40:47.920Z,12.00
2017-10-06T08:43:15.431Z,12.00
2017-10-06T08:45:43.968Z,12.30
2017-10-06T08:48:11.441Z,12.30
2017-10-06T08:50:38.920Z,12.30
2017-10-06T08:53:07.389Z,12.20
2017-10-06T08:55:35.643Z,12.00
2017-10-06T08:58:03.136Z,12.00
2017-10-06T09:00:31.815Z,11.90
2017-10-06T09:03:00.064Z,12.00
2017-10-06T09:05:27.547Z,12.00
2017-10-06T09:07:55.857Z,12.10
2017-10-06T09:10:23.351Z,12.10
2017-10-06T09:12:50.799Z,12.00
2017-10-06T09:15:18.394Z,12.00
2017-10-06T09:17:47.368Z,12.00
2017-10-06T09:20:15.639Z,12.00
2017-10-06T09:22:43.185Z,12.00
2017-10-06T09:25:10.714Z,12.00
2017-10-06T09:27:38.202Z,12.20
2017-10-06T09:30:05.727Z,12.50
2017-10-06T09:32:33.216Z,12.40
2017-10-06T09:35:00.673Z,12.40
2017-10-06T09:37:28.398Z,12.30
2017-10-06T09:39:55.878Z,12.30
2017-10-06T09:42:23.853Z,12.10
2017-10-06T09:44:51.527Z,11.90
2017-10-06T09:47:19.082Z,11.80
2017-10-06T09:49:46.668Z,11.70
2017-10-06T09:52:15.182Z,11.60
2017-10-06T09:54:42.664Z,11.60
2017-10-06T09:57:10.168Z,11.50
2017-10-06T09:59:37.670Z,11.40
2017-10-06T10:02:05.534Z,11.40
2017-10-06T10:04:33.026Z,11.40
2017-10-06T10:07:00.743Z,11.40
2017-10-06T10:09:28.317Z,11.60
2017-10-06T10:11:55.804Z,11.80
2017-10-06T10:14:23.988Z,11.80
2017-10-06T10:16:51.500Z,11.60
2017-10-06T10:19:20.008Z,11.50
2017-10-06T10:21:47.678Z,11.50
2017-10-06T10:24:15.193Z,11.30
2017-10-06T10:26:42.663Z,11.30
2017-10-06T10:29:10.407Z,11.30
2017-10-06T10:31:39.155Z,11.30
2017-10-06T10:34:06.651Z,11.30
2017-10-06T10:36:34.319Z,11.30
2017-10-06T10:39:02.447Z,11.20
2017-10-06T10:41:29.936Z,11.20
2017-10-06T10:43:58.217Z,11.20
2017-10-06T10:46:26.447Z,11.10
2017-10-06T10:48:54.676Z,11.40
2017-10-06T10:51:22.205Z,11.50
2017-10-06T10:53:50.174Z,11.50
2017-10-06T10:56:17.668Z,11.40
2017-10-06T10:58:45.197Z,11.30
2017-10-06T11:01:13.655Z,11.10
2017-10-06T11:03:41.155Z,11.10
2017-10-06T11:06:09.383Z,11.00
2017-10-06T11:08:37.002Z,11.00
2017-10-06T11:11:04.651Z,11.10
2017-10-06T11:13:32.139Z,11.20
2017-10-06T11:15:59.691Z,11.40
2017-10-06T11:18:27.202Z,11.60
2017-10-06T11:20:54.725Z,11.70
2017-10-06T11:23:22.251Z,11.90
2017-10-06T11:25:49.997Z,12.00
2017-10-06T11:28:18.280Z,12.90
2017-10-06T11:30:47.192Z,13.10
2017-10-06T11:33:14.730Z,13.10
2017-10-06T11:35:42.224Z,13.40
2017-10-06T11:38:09.743Z,13.40
2017-10-06T11:40:39.616Z,12.90
2017-10-06T11:43:07.159Z,12.90
2017-10-06T11:45:34.635Z,12.60
2017-10-06T11:48:02.380Z,12.50
2017-10-06T11:50:29.868Z,12.40
2017-10-06T11:52:57.333Z,12.20
2017-10-06T11:55:24.961Z,12.00
2017-10-06T11:57:52.538Z,12.10
2017-10-06T12:00:20.031Z,12.30
2017-10-06T12:02:48.497Z,12.60
2017-10-06T12:05:16.756Z,12.70
2017-10-06T12:07:44.550Z,12.70
2017-10-06T12:10:13.019Z,12.90
2017-10-06T12:12:41.434Z,12.70
2017-10-06T12:15:08.994Z,12.70
2017-10-06T12:17:36.515Z,12.50
2017-10-06T12:20:04.814Z,12.00
2017-10-06T12:22:32.308Z,12.00
2017-10-06T12:25:00.145Z,11.90
2017-10-06T12:27:27.670Z,11.80
2017-10-06T12:29:55.136Z,11.90
2017-10-06T12:32:24.015Z,12.00
2017-10-06T12:34:51.531Z,12.00
2017-10-06T12:37:18.996Z,12.00
2017-10-06T12:39:46.534Z,12.00
2017-10-06T12:42:14.104Z,12.10
2017-10-06T12:44:41.586Z,12.10
2017-10-06T12:47:09.243Z,12.00
2017-10-06T12:49:36.713Z,11.90
2017-10-06T12:52:04.947Z,11.90
2017-10-06T12:54:32.656Z,11.90
2017-10-06T12:57:00.148Z,12.00
2017-10-06T12:59:27.635Z,12.20
2017-10-06T13:01:55.227Z,12.40
2017-10-06T13:04:22.730Z,12.50
2017-10-06T13:06:50.236Z,12.60
2017-10-06T13:09:17.764Z,12.60
2017-10-06T13:11:45.261Z,12.40
2017-10-06T13:14:13.444Z,12.20
2017-10-06T13:16:40.952Z,11.90
2017-10-06T13:19:08.451Z,11.80
2017-10-06T13:21:36.148Z,11.70
2017-10-06T13:24:04.487Z,11.80
2017-10-06T13:26:32.428Z,11.80
2017-10-06T13:28:59.931Z,12.00
2017-10-06T13:31:28.342Z,12.30
2017-10-06T13:33:55.887Z,12.20
2017-10-06T13:36:23.367Z,12.30
2017-10-06T13:38:51.226Z,12.30
2017-10-06T13:41:18.692Z,12.30
2017-10-06T13:43:47.086Z,12.70
2017-10-06T13:46:14.580Z,12.90
2017-10-06T13:48:42.869Z,13.10
2017-10-06T13:51:11.147Z,13.00
2017-10-06T13:53:39.433Z,12.90
2017-10-06T13:56:09.764Z,12.90
2017-10-06T13:58:37.210Z,13.00
2017-10-06T14:01:04.916Z,13.10
2017-10-06T14:03:32.743Z,13.00
2017-10-06T14:06:01.082Z,12.80
2017-10-06T14:08:29.402Z,12.70
2017-10-06T14:10:57.056Z,12.70
2017-10-06T14:13:24.557Z,12.90
2017-10-06T14:15:52.051Z,12.90
2017-10-06T14:18:20.507Z,12.60
2017-10-06T14:20:47.978Z,12.50
2017-10-06T14:23:15.478Z,12.50
2017-10-06T14:25:43.098Z,12.30
2017-10-06T14:28:11.525Z,12.10
2017-10-06T14:30:39.063Z,12.00
2017-10-06T14:33:07.643Z,12.00
2017-10-06T14:35:35.910Z,12.00
2017-10-06T14:38:04.708Z,12.10
2017-10-06T14:40:33.265Z,12.20
2017-10-06T14:43:00.842Z,12.10
2017-10-06T14:45:28.361Z,12.20
2017-10-06T14:47:55.911Z,12.30
2017-10-06T14:50:23.618Z,12.30
2017-10-06T14:52:51.904Z,12.20
2017-10-06T14:55:20.136Z,12.20
2017-10-06T14:57:47.887Z,12.20
2017-10-06T15:00:15.371Z,12.20
2017-10-06T15:02:42.860Z,12.20
2017-10-06T15:05:11.552Z,12.30
2017-10-06T15:07:39.379Z,12.30
2017-10-06T15:10:07.040Z,12.30
2017-10-06T15:12:34.894Z,12.20
2017-10-06T15:15:02.359Z,12.30
2017-10-06T15:17:30.001Z,12.40
2017-10-06T15:19:57.705Z,12.40
2017-10-06T15:22:25.992Z,12.40
2017-10-06T15:24:54.701Z,12.40
2017-10-06T15:27:22.602Z,12.30
2017-10-06T15:29:50.482Z,12.30
2017-10-06T15:32:17.974Z,12.40
2017-10-06T15:34:46.549Z,12.40
2017-10-06T15:37:14.823Z,12.50
2017-10-06T15:39:43.057Z,12.60
2017-10-06T15:42:10.650Z,12.60
2017-10-06T15:44:38.896Z,12.60
2017-10-06T15:47:07.640Z,12.50
2017-10-06T15:49:35.178Z,12.50
2017-10-06T15:52:03.435Z,12.40
2017-10-06T15:54:30.978Z,12.40
2017-10-06T15:56:58.853Z,12.40
2017-10-06T15:59:26.426Z,12.50
2017-10-06T16:01:53.934Z,12.50
2017-10-06T16:04:21.430Z,12.60
2017-10-06T16:06:48.912Z,12.60
2017-10-06T16:09:17.612Z,12.60
2017-10-06T16:11:45.142Z,12.60
2017-10-06T16:14:12.733Z,12.60
2017-10-06T16:16:40.497Z,12.60
2017-10-06T16:19:08.764Z,12.50
2017-10-06T16:21:37.126Z,12.40
2017-10-06T16:24:04.676Z,12.40
2017-10-06T16:26:32.230Z,12.30
2017-10-06T16:29:00.165Z,12.30
2017-10-06T16:31:27.673Z,12.20
2017-10-06T16:33:55.970Z,12.00
2017-10-06T16:36:24.256Z,12.00
2017-10-06T16:38:51.796Z,12.00
2017-10-06T16:41:20.058Z,11.90
2017-10-06T16:43:48.555Z,11.80
2017-10-06T16:46:17.317Z,11.70
2017-10-06T16:48:44.957Z,11.70
2017-10-06T16:51:12.462Z,11.60
2017-10-06T16:53:40.664Z,11.50
2017-10-06T16:56:08.492Z,11.50
2017-10-06T16:58:36.946Z,11.30
2017-10-06T17:01:04.426Z,11.30
2017-10-06T17:03:33.518Z,11.20
2017-10-06T17:06:01.142Z,11.20
2017-10-06T17:08:28.730Z,11.10
2017-10-06T17:10:56.988Z,11.00
2017-10-06T17:13:24.784Z,11.00
2017-10-06T17:15:52.257Z,11.10
2017-10-06T17:18:19.740Z,11.00
2017-10-06T17:20:47.274Z,10.90
2017-10-06T17:23:15.731Z,10.90
2017-10-06T17:25:44.036Z,10.90
2017-10-06T17:28:12.505Z,10.90
2017-10-06T17:30:40.771Z,11.00
2017-10-06T17:33:08.805Z,10.90
2017-10-06T17:35:36.517Z,11.00
2017-10-06T17:38:04.846Z,10.80
2017-10-06T17:40:32.327Z,10.80
2017-10-06T17:42:59.826Z,10.70
2017-10-06T17:45:27.302Z,10.80
2017-10-06T17:47:54.826Z,10.80
2017-10-06T17:50:23.086Z,10.80
2017-10-06T17:52:51.404Z,10.70
2017-10-06T17:55:19.279Z,10.70
2017-10-06T17:57:46.823Z,10.70
2017-10-06T18:00:14.321Z,10.70
2017-10-06T18:02:41.948Z,10.80
2017-10-06T18:05:09.469Z,10.80
2017-10-06T18:07:37.810Z,10.60
2017-10-06T18:10:05.300Z,10.60
2017-10-06T18:12:33.562Z,10.60
2017-10-06T18:15:01.098Z,10.60
2017-10-06T18:17:28.850Z,10.60
2017-10-06T18:19:56.513Z,10.50
2017-10-06T18:22:24.137Z,10.50
2017-10-06T18:24:52.403Z,10.40
2017-10-06T18:27:20.728Z,10.30
2017-10-06T18:29:48.448Z,10.30
2017-10-06T18:32:16.687Z,10.20
2017-10-06T18:34:44.171Z,10.20
2017-10-06T18:37:12.694Z,10.10
2017-10-06T18:39:40.184Z,10.10
2017-10-06T18:42:07.662Z,10.10
2017-10-06T18:44:35.600Z,10.10
2017-10-06T18:47:03.087Z,10.10
2017-10-06T18:49:31.341Z,10.10
2017-10-06T18:51:59.702Z,10.10
2017-10-06T18:54:27.241Z,10.10
2017-10-06T18:56:54.786Z,10.10
2017-10-06T18:59:22.622Z,10.10
2017-10-06T19:01:50.134Z,10.10
2017-10-06T19:04:17.608Z,10.10
2017-10-06T19:06:45.227Z,10.00
2017-10-06T19:09:13.488Z,9.90
2017-10-06T19:11:41.836Z,9.90
2017-10-06T19:14:09.416Z,9.90
2017-10-06T19:16:37.759Z,9.90
2017-10-06T19:19:05.229Z,9.90
2017-10-06T19:21:32.938Z,9.90
2017-10-06T19:24:00.685Z,9.90
2017-10-06T19:26:28.196Z,9.80
2017-10-06T19:28:55.696Z,9.80
2017-10-06T19:31:23.968Z,9.80
2017-10-06T19:33:51.468Z,9.70
2017-10-06T19:36:19.113Z,9.70
2017-10-06T19:38:47.348Z,9.70
2017-10-06T19:41:14.826Z,9.70
2017-10-06T19:43:43.318Z,9.70
2017-10-06T19:46:11.589Z,9.70
2017-10-06T19:48:39.912Z,9.60
2017-10-06T19:51:07.543Z,9.60
2017-10-06T19:53:35.029Z,9.70
2017-10-06T19:56:02.816Z,9.70
2017-10-06T19:58:30.506Z,9.80
2017-10-06T20:00:58.010Z,9.90
2017-10-06T20:03:25.527Z,10.00
2017-10-06T20:05:54.507Z,10.20
2017-10-06T20:08:22.866Z,10.20
2017-10-06T20:10:50.366Z,10.20
2017-10-06T20:13:18.026Z,10.20
2017-10-06T20:15:45.564Z,10.20
2017-10-06T20:18:13.055Z,10.20
2017-10-06T20:20:40.554Z,10.20
2017-10-06T20:23:08.039Z,10.20
2017-10-06T20:25:36.326Z,10.10
2017-10-06T20:28:04.595Z,10.10
2017-10-06T20:30:32.855Z,10.20
2017-10-06T20:33:00.359Z,10.20
2017-10-06T20:35:27.871Z,10.20
2017-10-06T20:37:55.387Z,10.20
2017-10-06T20:40:22.951Z,10.30
2017-10-06T20:42:50.692Z,10.30
2017-10-06T20:45:18.192Z,10.30
2017-10-06T20:47:45.659Z,10.30
2017-10-06T20:50:13.650Z,10.30
2017-10-06T20:52:42.033Z,10.30
2017-10-06T20:55:10.277Z,10.30
2017-10-06T20:57:38.075Z,10.30
2017-10-06T21:00:06.675Z,10.20
2017-10-06T21:02:34.370Z,10.20
2017-10-06T21:05:02.113Z,10.20
2017-10-06T21:07:29.608Z,10.10
2017-10-06T21:09:57.098Z,10.00
2017-10-06T21:12:25.356Z,9.80
2017-10-06T21:14:52.835Z,9.80
2017-10-06T21:17:21.143Z,9.80
2017-10-06T21:19:48.858Z,9.80
2017-10-06T21:22:17.107Z,9.70
2017-10-06T21:24:44.568Z,9.70
2017-10-06T21:27:12.151Z,9.70
2017-10-06T21:29:40.488Z,9.80
2017-10-06T21:32:07.962Z,9.80
2017-10-06T21:34:35.445Z,9.90
2017-10-06T21:37:03.735Z,9.90
2017-10-06T21:39:32.000Z,10.10
2017-10-06T21:42:00.484Z,10.20
2017-10-06T21:44:28.740Z,10.20
2017-10-06T21:46:56.223Z,10.20
2017-10-06T21:49:24.919Z,10.30
2017-10-06T21:51:53.142Z,10.30
2017-10-06T21:54:20.615Z,10.30
2017-10-06T21:56:48.508Z,10.30
2017-10-06T21:59:16.790Z,10.30
2017-10-06T22:01:45.845Z,10.30
2017-10-06T22:04:13.503Z,10.30
2017-10-06T22:06:41.006Z,10.40
2017-10-06T22:09:09.271Z,10.40
2017-10-06T22:11:37.857Z,10.50
2017-10-06T22:14:06.083Z,10.40
2017-10-06T22:16:33.547Z,10.40
2017-10-06T22:19:01.247Z,10.40
2017-10-06T22:21:29.490Z,10.40
2017-10-06T22:23:57.666Z,10.40
2017-10-06T22:26:25.367Z,10.30
2017-10-06T22:28:53.609Z,10.30
2017-10-06T22:31:21.095Z,10.30
2017-10-06T22:33:49.674Z,10.30
2017-10-06T22:36:17.927Z,10.40
2017-10-06T22:38:46.964Z,10.40
2017-10-06T22:41:14.628Z,10.40
2017-10-06T22:43:42.088Z,10.40
2017-10-06T22:46:09.568Z,10.40
2017-10-06T22:48:37.230Z,10.40
2017-10-06T22:51:04.724Z,10.40
2017-10-06T22:53:32.244Z,10.40
2017-10-06T22:55:59.733Z,10.40
2017-10-06T22:58:27.238Z,10.40
2017-10-06T23:00:54.712Z,10.40
2017-10-06T23:03:22.466Z,10.40
2017-10-06T23:05:49.973Z,10.40
2017-10-06T23:08:17.478Z,10.40
2017-10-06T23:10:45.029Z,10.40
2017-10-06T23:13:12.544Z,10.40
2017-10-06T23:15:40.014Z,10.40
2017-10-06T23:18:08.542Z,10.50
2017-10-06T23:20:36.825Z,10.50
2017-10-06T23:23:04.297Z,10.50
2017-10-06T23:25:33.339Z,10.50
2017-10-06T23:28:00.827Z,10.50
2017-10-06T23:30:28.364Z,10.50
2017-10-06T23:32:56.138Z,10.50
2017-10-06T23:35:23.665Z,10.50
2017-10-06T23:37:51.111Z,10.50
2017-10-06T23:40:18.616Z,10.50
2017-10-06T23:42:46.148Z,10.40
2017-10-06T23:45:14.406Z,10.40
2017-10-06T23:47:42.093Z,10.40
2017-10-06T23:50:09.903Z,10.40
2017-10-06T23:52:37.695Z,10.40
2017-10-06T23:55:05.972Z,10.30
2017-10-06T23:57:33.446Z,10.30
